Time;durP1;ratioP1;P1;durP2;ratioP2;P2;SDS_P1;SDS_P2;PMS_P1;PMS_P2;Temp;Humidity;BMP_temperature;BMP_pressure;BME280_temperature;BME280_humidity;BME280_pressure;Samples;Min_cycle;Max_cycle;Signal;HPM_P1;HPM_P2
2022/06/21 00:01:36;;;;;;;;;;;;;;;;;;4982546;28;19914;-79
2022/06/21 00:04:02;;;;;;;;;;;;;;;;;;4967208;28;20208;-79
2022/06/21 00:06:27;;;;;;;;;;;;;;;;;;4968173;28;19914;-78
2022/06/21 00:08:53;;;;;;;;;;;;;;;;;;4948210;28;19922;-79
2022/06/21 00:11:18;;;;;;;;;;;;;;;;;;4964415;29;19914;-79
2022/06/21 00:13:44;;;;;;;;;;;;;;;;;;4974002;28;19921;-79
2022/06/21 00:16:09;;;;;;;;;;;;;;;;;;4976611;28;19914;-82
2022/06/21 00:18:37;;;;;;;;;;;;;;;;;;4970467;28;19914;-81
2022/06/21 00:21:03;;;;;;;;;;;;;;;;;;4971433;28;19964;-82
2022/06/21 00:23:28;;;;;;;;;;;;;;;;;;4989290;28;19914;-82
2022/06/21 00:25:54;;;;;;;;;;;;;;;;;;4988557;28;20431;-82
2022/06/21 00:28:20;;;;;;;;;;;;;;;;;;4969994;29;19902;-82
2022/06/21 00:30:46;;;;;;;;;;;;;;;;;;4964801;28;19911;-83
2022/06/21 00:33:15;;;;;;;;;;;;;;;;;;4995891;28;19902;-82
2022/06/21 00:35:46;;;;;;;;;;;;;;;;;;4969178;28;19924;-83
2022/06/21 00:38:12;;;;;;;;;;;;;;;;;;5001521;28;19898;-82
2022/06/21 00:40:37;;;;;;;;;;;;;;;;;;4984067;28;19914;-82
2022/06/21 00:43:06;;;;;;;;;;;;;;;;;;4951982;28;19922;-82
2022/06/21 00:45:32;;;;;;;;;;;;;;;;;;4951648;28;19898;-81
2022/06/21 00:47:58;;;;;;;;;;;;;;;;;;4968356;28;19979;-82
2022/06/21 00:50:24;;;;;;;;;;;;;;;;;;5000418;28;19902;-82
2022/06/21 00:52:50;;;;;;;;;;;;;;;;;;4967542;28;19926;-82
2022/06/21 00:55:15;;;;;;;;;;;;;;;;;;4978130;28;19918;-82
2022/06/21 00:57:41;;;;;;;;;;;;;;;;;;4966365;28;19902;-82
2022/06/21 01:00:11;;;;;;;;;;;;;;;;;;4966950;28;19914;-82
2022/06/21 01:02:37;;;;;;;;;;;;;;;;;;4998998;28;19938;-82
2022/06/21 01:05:09;;;;;;;;;;;;;;;;;;4998278;28;19910;-82
2022/06/21 01:07:34;;;;;;;;;;;;;;;;;;4975668;28;19961;-81
2022/06/21 01:10:03;;;;;;;;;;;;;;;;;;4967110;29;20301;-81
2022/06/21 01:12:32;;;;;;;;;;;;;;;;;;4929101;29;19920;-81
2022/06/21 01:14:58;;;;;;;;;;;;;;;;;;4960095;29;19910;-81
2022/06/21 01:17:25;;;;;;;;;;;;;;;;;;4946671;28;20374;-82
2022/06/21 01:19:54;;;;;;;;;;;;;;;;;;4982128;28;19921;-82
2022/06/21 01:22:20;;;;;;;;;;;;;;;;;;4983671;28;19942;-83
2022/06/21 01:24:52;;;;;;;;;;;;;;;;;;4975937;28;19914;-82
2022/06/21 01:27:21;;;;;;;;;;;;;;;;;;4966567;28;19926;-83
2022/06/21 01:29:50;;;;;;;;;;;;;;;;;;4966228;28;19914;-83
2022/06/21 01:32:16;;;;;;;;;;;;;;;;;;4981465;28;19981;-82
2022/06/21 01:34:45;;;;;;;;;;;;;;;;;;4980346;28;20090;-83
2022/06/21 01:37:11;;;;;;;;;;;;;;;;;;4956926;29;19914;-83
2022/06/21 01:39:36;;;;;;;;;;;;;;;;;;4977779;28;19938;-82
2022/06/21 01:42:05;;;;;;;;;;;;;;;;;;4997801;28;20304;-83
2022/06/21 01:44:31;;;;;;;;;;;;;;;;;;4997922;28;19948;-83
2022/06/21 01:47:00;;;;;;;;;;;;;;;;;;4983809;28;19922;-83
2022/06/21 01:52:16;;;;;;;;;;;;;;;;;;5068744;23;19926;-84
2022/06/21 01:54:51;;;;;;;;;;;;;;;;;;4986588;28;19917;-84
2022/06/21 01:57:18;;;;;;;;;;;;;;;;;;4981412;28;19914;-83
2022/06/21 01:59:52;;;;;;;;;;;;;;;;;;4959019;28;19903;-84
2022/06/21 02:02:19;;;;;;;;;;;;;;;;;;4982354;28;19914;-81
2022/06/21 02:04:53;;;;;;;;;;;;;;;;;;4975188;28;19991;-81
2022/06/21 02:07:22;;;;;;;;;;;;;;;;;;4974591;29;19918;-80
2022/06/21 02:09:48;;;;;;;;;;;;;;;;;;4941036;29;19903;-80
2022/06/21 02:12:14;;;;;;;;;;;;;;;;;;4957680;29;19961;-82
2022/06/21 02:14:40;;;;;;;;;;;;;;;;;;4958648;29;19905;-82
2022/06/21 02:17:06;;;;;;;;;;;;;;;;;;4933067;28;19965;-83
2022/06/21 02:19:32;;;;;;;;;;;;;;;;;;4962644;28;19914;-81
2022/06/21 02:22:03;;;;;;;;;;;;;;;;;;4979639;28;19910;-81
2022/06/21 02:24:37;;;;;;;;;;;;;;;;;;4964876;29;19899;-80
2022/06/21 02:27:04;;;;;;;;;;;;;;;;;;4960139;29;19902;-81
2022/06/21 02:29:43;;;;;;;;;;;;;;;;;;4932870;29;19936;-82
2022/06/21 02:32:09;;;;;;;;;;;;;;;;;;4960360;29;19915;-82
2022/06/21 02:34:35;;;;;;;;;;;;;;;;;;4966621;29;19974;-82
2022/06/21 02:37:01;;;;;;;;;;;;;;;;;;4970457;28;19938;-82
2022/06/21 02:39:28;;;;;;;;;;;;;;;;;;4995640;28;19938;-83
2022/06/21 02:41:57;;;;;;;;;;;;;;;;;;4957864;28;19918;-82
2022/06/21 02:44:28;;;;;;;;;;;;;;;;;;4962791;28;19937;-82
2022/06/21 02:46:55;;;;;;;;;;;;;;;;;;4976615;28;19918;-82
2022/06/21 02:49:24;;;;;;;;;;;;;;;;;;4987390;28;19918;-79
2022/06/21 02:51:50;;;;;;;;;;;;;;;;;;4990488;28;19970;-80
2022/06/21 02:54:17;;;;;;;;;;;;;;;;;;4977821;28;19920;-80
2022/06/21 02:56:42;;;;;;;;;;;;;;;;;;4979615;28;19989;-79
2022/06/21 02:59:08;;;;;;;;;;;;;;;;;;4984643;28;19957;-80
2022/06/21 03:01:34;;;;;;;;;;;;;;;;;;4960844;29;19911;-79
2022/06/21 03:04:00;;;;;;;;;;;;;;;;;;4941732;28;20004;-80
2022/06/21 03:06:26;;;;;;;;;;;;;;;;;;4949758;29;19958;-80
2022/06/21 03:08:52;;;;;;;;;;;;;;;;;;4968348;28;19918;-80
2022/06/21 03:11:17;;;;;;;;;;;;;;;;;;4992813;28;19914;-80
2022/06/21 03:13:43;;;;;;;;;;;;;;;;;;4932758;29;20022;-80
2022/06/21 03:16:09;;;;;;;;;;;;;;;;;;4984104;28;19922;-80
2022/06/21 03:18:34;;;;;;;;;;;;;;;;;;4981962;28;19914;-80
2022/06/21 03:21:01;;;;;;;;;;;;;;;;;;4991343;28;19925;-81
2022/06/21 03:23:28;;;;;;;;;;;;;;;;;;4988976;28;19914;-83
2022/06/21 03:25:55;;;;;;;;;;;;;;;;;;4984903;28;19914;-82
2022/06/21 03:28:36;;;;;;;;;;;;;;;;;;4975064;28;19919;-82
2022/06/21 03:31:02;;;;;;;;;;;;;;;;;;4976739;28;20013;-82
2022/06/21 03:33:29;;;;;;;;;;;;;;;;;;4973274;28;19936;-82
2022/06/21 03:36:00;;;;;;;;;;;;;;;;;;4972998;29;19969;-82
2022/06/21 03:38:27;;;;;;;;;;;;;;;;;;4960110;28;20005;-82
2022/06/21 03:43:46;;;;;;;;;;;;;;;;;;4985825;28;20377;-82
2022/06/21 03:46:18;;;;;;;;;;;;;;;;;;4982369;28;20017;-82
2022/06/21 03:48:45;;;;;;;;;;;;;;;;;;4936334;29;19918;-83
2022/06/21 03:51:15;;;;;;;;;;;;;;;;;;4976881;28;20392;-82
2022/06/21 03:53:50;;;;;;;;;;;;;;;;;;4971789;28;19937;-82
2022/06/21 03:56:29;;;;;;;;;;;;;;;;;;4978566;28;19946;-83
2022/06/21 03:59:00;;;;;;;;;;;;;;;;;;4973321;28;19961;-83
2022/06/21 04:01:38;;;;;;;;;;;;;;;;;;4985309;28;19976;-82
2022/06/21 04:04:10;;;;;;;;;;;;;;;;;;4971758;28;19925;-81
2022/06/21 04:06:37;;;;;;;;;;;;;;;;;;4985027;28;19922;-81
2022/06/21 04:09:07;;;;;;;;;;;;;;;;;;4966761;28;19915;-81
2022/06/21 04:11:34;;;;;;;;;;;;;;;;;;4971469;28;19920;-83
2022/06/21 04:14:05;;;;;;;;;;;;;;;;;;4989408;28;19914;-82
2022/06/21 04:16:34;;;;;;;;;;;;;;;;;;4954189;28;19922;-83
2022/06/21 04:19:03;;;;;;;;;;;;;;;;;;4971028;28;19925;-82
2022/06/21 04:21:30;;;;;;;;;;;;;;;;;;4985640;28;19921;-82
2022/06/21 04:23:56;;;;;;;;;;;;;;;;;;4978457;28;19914;-81
2022/06/21 04:26:22;;;;;;;;;;;;;;;;;;4972041;28;19954;-81
2022/06/21 04:28:48;;;;;;;;;;;;;;;;;;4976443;28;19923;-82
2022/06/21 04:31:13;;;;;;;;;;;;;;;;;;4994705;28;20372;-81
2022/06/21 04:33:39;;;;;;;;;;;;;;;;;;4950584;28;19956;-81
2022/06/21 04:36:12;;;;;;;;;;;;;;;;;;4965590;28;20142;-82
2022/06/21 04:38:41;;;;;;;;;;;;;;;;;;4964812;29;20381;-81
2022/06/21 04:41:17;;;;;;;;;;;;;;;;;;4980286;28;19921;-80
2022/06/21 04:43:49;;;;;;;;;;;;;;;;;;4956852;29;19914;-81
2022/06/21 04:46:16;;;;;;;;;;;;;;;;;;4968227;28;19918;-81
2022/06/21 04:48:43;;;;;;;;;;;;;;;;;;4995727;28;20387;-80
2022/06/21 04:51:09;;;;;;;;;;;;;;;;;;4960531;28;20009;-82
2022/06/21 04:53:35;;;;;;;;;;;;;;;;;;4978467;28;19914;-81
2022/06/21 04:56:03;;;;;;;;;;;;;;;;;;4963910;28;19918;-82
2022/06/21 04:58:32;;;;;;;;;;;;;;;;;;4954730;28;19918;-81
2022/06/21 05:01:29;;;;;;;;;;;;;;;;;;4960108;28;20011;-80
2022/06/21 05:03:49;;;;;;;;;;;;;;;;;;4978572;28;19925;-81
2022/06/21 05:06:17;;;;;;;;;;;;;;;;;;4953200;28;19918;-82
2022/06/21 05:08:50;;;;;;;;;;;;;;;;;;4972660;28;19969;-82
2022/06/21 05:11:19;;;;;;;;;;;;;;;;;;4994573;28;19921;-82
2022/06/21 05:13:48;;;;;;;;;;;;;;;;;;4978940;28;19986;-81
2022/06/21 05:16:14;;;;;;;;;;;;;;;;;;4952803;28;19914;-81
2022/06/21 05:18:40;;;;;;;;;;;;;;;;;;4981678;28;19918;-83
2022/06/21 05:21:06;;;;;;;;;;;;;;;;;;4952790;29;19903;-81
2022/06/21 05:23:33;;;;;;;;;;;;;;;;;;4989352;28;19898;-84
2022/06/21 05:26:04;;;;;;;;;;;;;;;;;;4968134;28;19902;-84
2022/06/21 05:28:49;;;;;;;;;;;;;;;;;;4965810;28;19927;-85
2022/06/21 05:31:16;;;;;;;;;;;;;;;;;;4979947;28;19903;-84
2022/06/21 05:33:42;;;;;;;;;;;;;;;;;;4965445;28;19923;-84
2022/06/21 05:36:11;;;;;;;;;;;;;;;;;;4980697;28;19918;-84
2022/06/21 05:38:41;;;;;;;;;;;;;;;;;;4972879;28;19950;-85
2022/06/21 05:41:07;;;;;;;;;;;;;;;;;;4980968;28;19918;-83
2022/06/21 05:43:45;;;;;;;;;;;;;;;;;;4992826;28;19914;-83
2022/06/21 05:46:12;;;;;;;;;;;;;;;;;;4993472;28;19986;-83
2022/06/21 05:49:10;;;;;;;;;;;;;;;;;;4991531;28;19906;-84
2022/06/21 05:51:40;;;;;;;;;;;;;;;;;;4969442;28;19937;-84
2022/06/21 05:54:07;;;;;;;;;;;;;;;;;;4985037;28;19914;-84
2022/06/21 05:56:44;;;;;;;;;;;;;;;;;;4952761;29;19915;-82
2022/06/21 05:59:10;;;;;;;;;;;;;;;;;;4990606;28;19985;-83
2022/06/21 06:01:38;;;;;;;;;;;;;;;;;;4997397;28;19926;-83
2022/06/21 06:04:13;;;;;;;;;;;;;;;;;;4963495;28;19915;-83
2022/06/21 06:06:41;;;;;;;;;;;;;;;;;;5030287;23;19927;-87
2022/06/21 06:09:07;;;;;;;;;;;;;;;;;;4946902;29;19921;-83
2022/06/21 06:14:16;;;;;;;;;;;;;;;;;;4976506;28;19998;-84
2022/06/21 06:16:42;;;;;;;;;;;;;;;;;;4950979;28;19951;-86
2022/06/21 06:19:07;;;;;;;;;;;;;;;;;;4941562;29;20378;-84
2022/06/21 06:21:35;;;;;;;;;;;;;;;;;;4912913;29;19919;-89
2022/06/21 06:24:00;;;;;;;;;;;;;;;;;;4935297;29;19918;-83
2022/06/21 06:26:26;;;;;;;;;;;;;;;;;;4920176;29;19919;-88
2022/06/21 06:28:51;;;;;;;;;;;;;;;;;;4941575;29;19922;-87
2022/06/21 06:31:16;;;;;;;;;;;;;;;;;;4919315;29;20020;-88
2022/06/21 06:33:42;;;;;;;;;;;;;;;;;;4932592;29;19922;-87
2022/06/21 06:36:07;;;;;;;;;;;;;;;;;;4901704;29;19915;-88
2022/06/21 06:38:33;;;;;;;;;;;;;;;;;;4913702;29;20005;-84
2022/06/21 06:40:58;;;;;;;;;;;;;;;;;;4944191;29;20002;-87
2022/06/21 06:43:24;;;;;;;;;;;;;;;;;;4935540;29;20001;-88
2022/06/21 06:45:52;;;;;;;;;;;;;;;;;;4919120;29;19915;-85
2022/06/21 06:48:17;;;;;;;;;;;;;;;;;;4936621;29;20006;-89
2022/06/21 06:50:43;;;;;;;;;;;;;;;;;;4922349;29;19950;-89
2022/06/21 06:53:11;;;;;;;;;;;;;;;;;;4908227;29;19957;-89
2022/06/21 06:55:37;;;;;;;;;;;;;;;;;;4932017;29;19946;-85
2022/06/21 06:58:02;;;;;;;;;;;;;;;;;;4912165;29;19958;-87
2022/06/21 07:00:28;;;;;;;;;;;;;;;;;;4934518;29;19926;-87
2022/06/21 07:02:53;;;;;;;;;;;;;;;;;;4935411;29;20384;-87
2022/06/21 07:05:19;;;;;;;;;;;;;;;;;;4937112;29;19978;-87
2022/06/21 07:07:44;;;;;;;;;;;;;;;;;;4926317;29;19919;-87
2022/06/21 07:10:10;;;;;;;;;;;;;;;;;;4915142;29;20364;-87
2022/06/21 07:12:35;;;;;;;;;;;;;;;;;;4918161;29;19915;-90
2022/06/21 07:15:01;;;;;;;;;;;;;;;;;;4903404;29;19963;-85
2022/06/21 07:17:26;;;;;;;;;;;;;;;;;;4918416;29;19950;-88
2022/06/21 07:19:51;;;;;;;;;;;;;;;;;;4916484;29;19915;-90
2022/06/21 07:22:17;;;;;;;;;;;;;;;;;;4930923;29;20393;-92
2022/06/21 07:24:42;;;;;;;;;;;;;;;;;;4903789;29;19950;-90
2022/06/21 07:27:08;;;;;;;;;;;;;;;;;;4924369;29;20388;-89
2022/06/21 07:29:33;;;;;;;;;;;;;;;;;;4902837;29;19922;-90
2022/06/21 07:31:59;;;;;;;;;;;;;;;;;;4929479;29;20307;-83
2022/06/21 07:34:25;;;;;;;;;;;;;;;;;;4912769;29;19915;-83
2022/06/21 07:36:50;;;;;;;;;;;;;;;;;;4933512;29;19919;-86
2022/06/21 07:39:15;;;;;;;;;;;;;;;;;;4927806;29;20319;-87
2022/06/21 07:41:41;;;;;;;;;;;;;;;;;;4935396;29;20412;-86
2022/06/21 07:44:06;;;;;;;;;;;;;;;;;;4918213;29;19915;-86
2022/06/21 07:46:31;;;;;;;;;;;;;;;;;;4933713;29;20330;-89
2022/06/21 07:48:59;;;;;;;;;;;;;;;;;;4918720;29;20301;-90
2022/06/21 07:51:27;;;;;;;;;;;;;;;;;;4920121;29;19922;-92
2022/06/21 07:53:59;;;;;;;;;;;;;;;;;;4907728;29;19922;-89
2022/06/21 07:56:24;;;;;;;;;;;;;;;;;;4925358;29;19911;-87
2022/06/21 07:58:50;;;;;;;;;;;;;;;;;;4912171;29;20394;-86
2022/06/21 08:06:45;;;;;;;;;;;;;;;;;;4918368;29;20298;-81
2022/06/21 08:09:13;;;;;;;;;;;;;;;;;;4917640;29;19929;-90
2022/06/21 08:11:41;;;;;;;;;;;;;;;;;;4910617;29;19923;-89
2022/06/21 08:14:06;;;;;;;;;;;;;;;;;;4938145;29;20298;-92
2022/06/21 08:16:33;;;;;;;;;;;;;;;;;;4921948;29;19914;-87
2022/06/21 08:18:59;;;;;;;;;;;;;;;;;;4941801;29;20359;-90
2022/06/21 08:21:24;;;;;;;;;;;;;;;;;;4922878;29;19997;-90
2022/06/21 08:23:50;;;;;;;;;;;;;;;;;;4935264;29;20049;-91
2022/06/21 08:26:16;;;;;;;;;;;;;;;;;;4886885;29;20009;-90
2022/06/21 08:28:42;;;;;;;;;;;;;;;;;;4923027;29;19926;-90
2022/06/21 08:31:07;;;;;;;;;;;;;;;;;;4901953;29;19915;-91
2022/06/21 08:33:32;;;;;;;;;;;;;;;;;;4910030;29;20335;-90
2022/06/21 08:35:58;;;;;;;;;;;;;;;;;;4925843;29;19915;-89
2022/06/21 08:38:23;;;;;;;;;;;;;;;;;;4917509;29;19915;-89
2022/06/21 08:40:49;;;;;;;;;;;;;;;;;;4936391;29;20309;-96
2022/06/21 08:43:14;;;;;;;;;;;;;;;;;;4914680;29;19954;-95
2022/06/21 08:45:43;;;;;;;;;;;;;;;;;;4912683;29;20353;-94
2022/06/21 08:48:09;;;;;;;;;;;;;;;;;;4936895;29;19915;-93
2022/06/21 08:50:36;;;;;;;;;;;;;;;;;;4911205;29;19965;-96
2022/06/21 08:53:01;;;;;;;;;;;;;;;;;;4934488;29;19957;-97
2022/06/21 08:55:27;;;;;;;;;;;;;;;;;;4918371;29;20294;-96
2022/06/21 08:57:52;;;;;;;;;;;;;;;;;;4937899;29;19922;-95
2022/06/21 09:00:18;;;;;;;;;;;;;;;;;;4928845;29;20289;-96
2022/06/21 09:02:43;;;;;;;;;;;;;;;;;;4941607;29;19915;-95
2022/06/21 09:05:08;;;;;;;;;;;;;;;;;;4935892;29;19983;-96
2022/06/21 09:07:34;;;;;;;;;;;;;;;;;;4930625;29;19982;-95
2022/06/21 09:09:59;;;;;;;;;;;;;;;;;;4915493;29;19941;-95
2022/06/21 09:12:24;;;;;;;;;;;;;;;;;;4912111;29;19967;-96
2022/06/21 09:14:50;;;;;;;;;;;;;;;;;;4898302;29;19919;-95
2022/06/21 09:17:16;;;;;;;;;;;;;;;;;;4910360;29;19926;-95
2022/06/21 09:19:41;;;;;;;;;;;;;;;;;;4906641;29;20255;-96
2022/06/21 09:22:07;;;;;;;;;;;;;;;;;;4924098;29;20068;-94
2022/06/21 09:24:32;;;;;;;;;;;;;;;;;;4897495;29;19987;-96
2022/06/21 09:26:57;;;;;;;;;;;;;;;;;;4901636;29;20393;-95
2022/06/21 09:29:23;;;;;;;;;;;;;;;;;;4903375;29;19919;-93
2022/06/21 09:31:48;;;;;;;;;;;;;;;;;;4899545;29;20456;-96
2022/06/21 09:34:14;;;;;;;;;;;;;;;;;;4947163;29;20325;-96
2022/06/21 09:36:39;;;;;;;;;;;;;;;;;;4929479;29;19915;-96
2022/06/21 09:39:05;;;;;;;;;;;;;;;;;;4916916;29;20418;-91
2022/06/21 09:41:30;;;;;;;;;;;;;;;;;;4917103;29;19919;-93
2022/06/21 09:43:56;;;;;;;;;;;;;;;;;;4903934;29;19947;-95
2022/06/21 09:46:22;;;;;;;;;;;;;;;;;;4913022;29;19922;-95
2022/06/21 09:48:47;;;;;;;;;;;;;;;;;;4933095;29;19919;-92
2022/06/21 09:51:13;;;;;;;;;;;;;;;;;;4888748;29;19922;-93
2022/06/21 09:53:38;;;;;;;;;;;;;;;;;;4906332;29;20398;-93
2022/06/21 09:56:04;;;;;;;;;;;;;;;;;;4920576;29;20294;-95
2022/06/21 09:58:29;;;;;;;;;;;;;;;;;;4904597;29;20375;-94
2022/06/21 10:00:55;;;;;;;;;;;;;;;;;;4903358;29;20072;-94
2022/06/21 10:03:21;;;;;;;;;;;;;;;;;;4929458;29;20401;-93
2022/06/21 10:05:46;;;;;;;;;;;;;;;;;;4903356;29;19922;-93
2022/06/21 10:08:11;;;;;;;;;;;;;;;;;;4935607;29;20329;-95
2022/06/21 10:10:37;;;;;;;;;;;;;;;;;;4932899;29;19958;-86
2022/06/21 10:13:02;;;;;;;;;;;;;;;;;;4890772;29;19914;-89
2022/06/21 10:15:28;;;;;;;;;;;;;;;;;;4907588;29;19998;-89
2022/06/21 10:17:53;;;;;;;;;;;;;;;;;;4903379;29;19915;-90
2022/06/21 10:20:20;;;;;;;;;;;;;;;;;;4887929;29;20290;-88
2022/06/21 10:22:45;;;;;;;;;;;;;;;;;;4910566;29;19952;-88
2022/06/21 10:25:11;;;;;;;;;;;;;;;;;;4912755;29;20386;-88
2022/06/21 10:27:36;;;;;;;;;;;;;;;;;;4942163;29;20101;-88
2022/06/21 10:30:02;;;;;;;;;;;;;;;;;;4934037;29;19978;-88
2022/06/21 10:32:27;;;;;;;;;;;;;;;;;;4920481;29;19915;-85
2022/06/21 10:34:53;;;;;;;;;;;;;;;;;;4916863;29;20391;-84
2022/06/21 10:37:18;;;;;;;;;;;;;;;;;;4925927;29;19957;-86
2022/06/21 10:39:44;;;;;;;;;;;;;;;;;;4927595;29;20009;-83
2022/06/21 10:44:53;;;;;;;;;;;;;;;;;;4910624;29;19963;-93
2022/06/21 10:47:19;;;;;;;;;;;;;;;;;;4903755;29;19914;-90
2022/06/21 10:49:44;;;;;;;;;;;;;;;;;;4896537;29;20255;-91
2022/06/21 10:52:11;;;;;;;;;;;;;;;;;;4907948;29;19951;-86
2022/06/21 10:54:37;;;;;;;;;;;;;;;;;;4911429;29;19915;-85
2022/06/21 10:57:15;;;;;;;;;;;;;;;;;;4906917;29;19922;-87
2022/06/21 11:02:31;;;;;;;;;;;;;;;;;;4922248;29;19944;-89
2022/06/21 11:04:58;;;;;;;;;;;;;;;;;;4892053;29;19915;-86
2022/06/21 11:07:24;;;;;;;;;;;;;;;;;;4903371;29;19926;-86
2022/06/21 11:09:49;;;;;;;;;;;;;;;;;;4904542;29;19922;-87
2022/06/21 11:14:59;;;;;;;;;;;;;;;;;;4917708;29;20009;-86
2022/06/21 11:17:27;;;;;;;;;;;;;;;;;;4900726;29;19915;-87
2022/06/21 11:19:53;;;;;;;;;;;;;;;;;;4893836;29;19937;-86
2022/06/21 11:22:18;;;;;;;;;;;;;;;;;;4904132;29;20025;-86
2022/06/21 11:24:44;;;;;;;;;;;;;;;;;;4927791;29;19974;-84
2022/06/21 11:27:10;;;;;;;;;;;;;;;;;;4934796;29;19918;-84
2022/06/21 11:29:36;;;;;;;;;;;;;;;;;;4899573;29;19915;-82
2022/06/21 11:32:01;;;;;;;;;;;;;;;;;;4921550;29;19970;-81
2022/06/21 11:34:26;;;;;;;;;;;;;;;;;;4887731;29;20393;-83
2022/06/21 11:36:52;;;;;;;;;;;;;;;;;;4918056;29;19915;-84
2022/06/21 11:39:18;;;;;;;;;;;;;;;;;;4903441;29;19966;-84
2022/06/21 11:44:27;;;;;;;;;;;;;;;;;;4918116;29;19977;-81
2022/06/21 11:46:53;;;;;;;;;;;;;;;;;;4918083;29;20367;-82
2022/06/21 11:49:18;;;;;;;;;;;;;;;;;;4888986;29;19919;-81
2022/06/21 11:51:44;;;;;;;;;;;;;;;;;;4903973;29;20314;-84
2022/06/21 11:54:09;;;;;;;;;;;;;;;;;;4921441;29;19915;-84
2022/06/21 11:56:35;;;;;;;;;;;;;;;;;;4921021;29;19915;-84
2022/06/21 11:59:00;;;;;;;;;;;;;;;;;;4921599;29;19950;-85
2022/06/21 12:01:26;;;;;;;;;;;;;;;;;;4921192;29;20404;-85
2022/06/21 12:03:51;;;;;;;;;;;;;;;;;;4921451;29;19974;-85
2022/06/21 12:06:17;;;;;;;;;;;;;;;;;;4901624;29;19934;-85
2022/06/21 12:08:42;;;;;;;;;;;;;;;;;;4913141;29;19967;-85
2022/06/21 12:11:08;;;;;;;;;;;;;;;;;;4934429;23;19948;-82
2022/06/21 12:13:33;;;;;;;;;;;;;;;;;;4976333;28;19918;-80
2022/06/21 12:15:59;;;;;;;;;;;;;;;;;;4927144;28;19914;-78
2022/06/21 12:18:24;;;;;;;;;;;;;;;;;;4976476;28;19914;-78
2022/06/21 12:20:50;;;;;;;;;;;;;;;;;;4942745;28;19921;-81
2022/06/21 12:23:16;;;;;;;;;;;;;;;;;;4927148;28;19922;-79
2022/06/21 12:25:41;;;;;;;;;;;;;;;;;;4976221;28;19914;-77
2022/06/21 12:28:07;;;;;;;;;;;;;;;;;;4958902;28;19968;-78
2022/06/21 12:30:33;;;;;;;;;;;;;;;;;;4976064;28;19914;-78
2022/06/21 12:32:58;;;;;;;;;;;;;;;;;;4958798;28;19921;-78
2022/06/21 12:35:24;;;;;;;;;;;;;;;;;;4975879;28;20146;-77
2022/06/21 12:37:50;;;;;;;;;;;;;;;;;;4973436;28;20384;-78
2022/06/21 12:40:19;;;;;;;;;;;;;;;;;;4950444;28;19969;-79
2022/06/21 12:42:45;;;;;;;;;;;;;;;;;;4958710;28;19969;-78
2022/06/21 12:45:10;;;;;;;;;;;;;;;;;;4975675;28;19910;-78
2022/06/21 12:47:36;;;;;;;;;;;;;;;;;;4942031;28;19918;-77
2022/06/21 12:50:04;;;;;;;;;;;;;;;;;;4942556;28;20170;-78
2022/06/21 12:52:30;;;;;;;;;;;;;;;;;;4975658;28;19956;-78
2022/06/21 12:54:55;;;;;;;;;;;;;;;;;;4925413;28;19963;-77
2022/06/21 12:57:21;;;;;;;;;;;;;;;;;;4958351;28;19982;-78
2022/06/21 12:59:47;;;;;;;;;;;;;;;;;;4975794;28;19915;-78
2022/06/21 13:02:12;;;;;;;;;;;;;;;;;;4990546;28;19937;-78
2022/06/21 13:04:38;;;;;;;;;;;;;;;;;;4958327;28;19965;-76
2022/06/21 13:07:04;;;;;;;;;;;;;;;;;;4958209;28;19925;-77
2022/06/21 13:09:29;;;;;;;;;;;;;;;;;;4975560;28;20399;-78
2022/06/21 13:11:55;;;;;;;;;;;;;;;;;;4973802;28;20332;-77
2022/06/21 13:14:20;;;;;;;;;;;;;;;;;;4952846;28;19914;-78
2022/06/21 13:16:46;;;;;;;;;;;;;;;;;;4975482;28;20015;-77
2022/06/21 13:19:11;;;;;;;;;;;;;;;;;;4941805;28;20010;-77
2022/06/21 13:21:37;;;;;;;;;;;;;;;;;;4957541;28;20385;-79
2022/06/21 13:24:06;;;;;;;;;;;;;;;;;;4942279;28;19914;-78
2022/06/21 13:26:32;;;;;;;;;;;;;;;;;;4974869;28;20021;-79
2022/06/21 13:28:57;;;;;;;;;;;;;;;;;;4957760;28;19922;-78
2022/06/21 13:31:23;;;;;;;;;;;;;;;;;;4979967;28;19945;-77
2022/06/21 13:33:49;;;;;;;;;;;;;;;;;;4954281;28;19964;-78
2022/06/21 13:36:14;;;;;;;;;;;;;;;;;;4936144;29;19921;-78
2022/06/21 13:38:40;;;;;;;;;;;;;;;;;;4938677;29;20017;-78
2022/06/21 13:41:06;;;;;;;;;;;;;;;;;;4939069;29;19961;-79
2022/06/21 13:43:31;;;;;;;;;;;;;;;;;;4924036;28;19972;-78
2022/06/21 13:45:57;;;;;;;;;;;;;;;;;;4922895;29;19968;-79
2022/06/21 13:48:23;;;;;;;;;;;;;;;;;;4973716;28;19929;-77
2022/06/21 13:50:48;;;;;;;;;;;;;;;;;;4922308;29;19946;-78
2022/06/21 13:53:16;;;;;;;;;;;;;;;;;;4941079;28;19921;-76
2022/06/21 13:55:41;;;;;;;;;;;;;;;;;;4974474;28;20008;-78
2022/06/21 13:58:07;;;;;;;;;;;;;;;;;;4974952;28;19982;-78
2022/06/21 14:00:32;;;;;;;;;;;;;;;;;;4940352;28;19969;-78
2022/06/21 14:02:58;;;;;;;;;;;;;;;;;;4921938;29;19919;-78
2022/06/21 14:05:24;;;;;;;;;;;;;;;;;;4948018;28;19922;-78
2022/06/21 14:07:52;;;;;;;;;;;;;;;;;;4957124;28;19918;-78
2022/06/21 14:10:18;;;;;;;;;;;;;;;;;;4956661;28;19920;-78
2022/06/21 14:12:46;;;;;;;;;;;;;;;;;;4940708;28;19918;-78
2022/06/21 14:15:13;;;;;;;;;;;;;;;;;;4952617;28;19925;-78
2022/06/21 14:17:40;;;;;;;;;;;;;;;;;;4947103;28;19953;-77
2022/06/21 14:20:06;;;;;;;;;;;;;;;;;;4969011;28;19929;-79
2022/06/21 14:22:32;;;;;;;;;;;;;;;;;;4940339;28;19914;-79
2022/06/21 14:24:58;;;;;;;;;;;;;;;;;;4956890;28;19914;-78
2022/06/21 14:27:24;;;;;;;;;;;;;;;;;;4943750;28;19955;-78
2022/06/21 14:29:50;;;;;;;;;;;;;;;;;;4941440;28;19935;-78
2022/06/21 14:32:16;;;;;;;;;;;;;;;;;;4956222;28;19914;-78
2022/06/21 14:34:41;;;;;;;;;;;;;;;;;;4921863;29;19918;-78
2022/06/21 14:37:07;;;;;;;;;;;;;;;;;;4947393;28;20415;-78
2022/06/21 14:39:35;;;;;;;;;;;;;;;;;;4956579;28;19986;-77
2022/06/21 14:42:04;;;;;;;;;;;;;;;;;;4954313;28;20277;-77
2022/06/21 14:44:30;;;;;;;;;;;;;;;;;;4918008;29;19914;-77
2022/06/21 14:46:56;;;;;;;;;;;;;;;;;;4921526;29;19915;-77
2022/06/21 14:49:21;;;;;;;;;;;;;;;;;;4954602;28;19921;-78
2022/06/21 14:51:48;;;;;;;;;;;;;;;;;;4956074;28;19914;-78
2022/06/21 14:54:13;;;;;;;;;;;;;;;;;;4958170;28;19918;-77
2022/06/21 14:56:39;;;;;;;;;;;;;;;;;;4971358;28;20362;-77
2022/06/21 14:59:05;;;;;;;;;;;;;;;;;;4938074;28;19977;-77
2022/06/21 15:01:31;;;;;;;;;;;;;;;;;;4954852;28;20364;-77
2022/06/21 15:04:00;;;;;;;;;;;;;;;;;;4973021;28;19922;-77
2022/06/21 15:06:25;;;;;;;;;;;;;;;;;;4952665;29;19921;-78
2022/06/21 15:08:51;;;;;;;;;;;;;;;;;;4961502;28;20013;-77
2022/06/21 15:11:16;;;;;;;;;;;;;;;;;;4955105;28;19949;-77
2022/06/21 15:13:42;;;;;;;;;;;;;;;;;;4955756;28;20372;-77
2022/06/21 15:16:08;;;;;;;;;;;;;;;;;;4955948;28;19985;-77
2022/06/21 15:18:38;;;;;;;;;;;;;;;;;;4936623;29;20006;-78
2022/06/21 15:21:04;;;;;;;;;;;;;;;;;;4945819;28;19918;-77
2022/06/21 15:23:29;;;;;;;;;;;;;;;;;;4973100;28;20347;-78
2022/06/21 15:25:55;;;;;;;;;;;;;;;;;;4939074;28;19936;-78
2022/06/21 15:28:21;;;;;;;;;;;;;;;;;;4951176;28;19969;-78
2022/06/21 15:30:46;;;;;;;;;;;;;;;;;;4955766;28;19985;-78
2022/06/21 15:33:12;;;;;;;;;;;;;;;;;;4972920;28;19914;-78
2022/06/21 15:35:37;;;;;;;;;;;;;;;;;;4973191;28;19922;-78
2022/06/21 15:38:03;;;;;;;;;;;;;;;;;;4967607;28;20407;-78
2022/06/21 15:40:29;;;;;;;;;;;;;;;;;;4955809;28;20389;-79
2022/06/21 15:42:56;;;;;;;;;;;;;;;;;;4954155;28;19918;-77
2022/06/21 15:45:22;;;;;;;;;;;;;;;;;;4956048;28;19914;-78
2022/06/21 15:50:33;;;;;;;;;;;;;;;;;;4970735;28;20287;-77
2022/06/21 15:52:59;;;;;;;;;;;;;;;;;;4955969;28;19917;-78
2022/06/21 15:55:25;;;;;;;;;;;;;;;;;;4953953;28;20206;-77
2022/06/21 15:58:00;;;;;;;;;;;;;;;;;;4936641;29;19966;-79
2022/06/21 16:00:25;;;;;;;;;;;;;;;;;;4922186;28;19926;-79
2022/06/21 16:02:51;;;;;;;;;;;;;;;;;;4955437;28;19977;-78
2022/06/21 16:05:16;;;;;;;;;;;;;;;;;;4956790;28;20274;-78
2022/06/21 16:07:42;;;;;;;;;;;;;;;;;;4927853;28;19919;-78
2022/06/21 16:10:10;;;;;;;;;;;;;;;;;;4936339;29;20022;-78
2022/06/21 16:12:37;;;;;;;;;;;;;;;;;;4942646;28;20001;-79
2022/06/21 16:15:03;;;;;;;;;;;;;;;;;;4956159;28;19921;-79
2022/06/21 16:17:29;;;;;;;;;;;;;;;;;;4971815;28;20078;-77
2022/06/21 16:19:57;;;;;;;;;;;;;;;;;;4942260;28;19914;-79
2022/06/21 16:22:23;;;;;;;;;;;;;;;;;;4940742;29;20001;-77
2022/06/21 16:24:49;;;;;;;;;;;;;;;;;;4951054;28;20006;-78
2022/06/21 16:27:15;;;;;;;;;;;;;;;;;;4947551;28;19925;-78
2022/06/21 16:29:41;;;;;;;;;;;;;;;;;;4977859;28;20147;-78
2022/06/21 16:34:51;;;;;;;;;;;;;;;;;;4960765;28;20407;-78
2022/06/21 16:37:17;;;;;;;;;;;;;;;;;;4960256;28;19985;-78
2022/06/21 16:39:42;;;;;;;;;;;;;;;;;;4959812;28;19914;-79
2022/06/21 16:44:56;;;;;;;;;;;;;;;;;;4948551;29;19938;-78
2022/06/21 16:47:25;;;;;;;;;;;;;;;;;;4928201;28;19918;-78
2022/06/21 16:49:50;;;;;;;;;;;;;;;;;;4942897;28;19941;-78
2022/06/21 16:52:17;;;;;;;;;;;;;;;;;;4943309;28;19977;-79
2022/06/21 16:54:42;;;;;;;;;;;;;;;;;;4976356;28;19914;-79
2022/06/21 16:57:08;;;;;;;;;;;;;;;;;;4976384;28;19917;-79
2022/06/21 16:59:34;;;;;;;;;;;;;;;;;;4959047;28;19918;-80
2022/06/21 17:02:05;;;;;;;;;;;;;;;;;;4957991;28;19914;-79
2022/06/21 17:04:40;;;;;;;;;;;;;;;;;;4942469;28;19922;-81
2022/06/21 17:07:25;;;;;;;;;;;;;;;;;;4963367;28;20297;-80
2022/06/21 17:09:54;;;;;;;;;;;;;;;;;;4957350;28;19918;-80
2022/06/21 17:12:25;;;;;;;;;;;;;;;;;;4926147;28;20009;-79
2022/06/21 17:14:57;;;;;;;;;;;;;;;;;;4925372;28;20046;-81
2022/06/21 17:17:31;;;;;;;;;;;;;;;;;;4958778;28;19919;-81